sensor_id;sensor_type;location;lat;lon;timestamp;P1;durP1;ratioP1;P2;durP2;ratioP2
15637;SDS011;26604;53.596;10.042;2022-09-12T00:01:11;4.28;;;2.70;;
15637;SDS011;26604;53.596;10.042;2022-09-12T00:03:39;4.82;;;2.80;;
15637;SDS011;26604;53.596;10.042;2022-09-12T00:06:06;4.18;;;2.80;;
15637;SDS011;26604;53.596;10.042;2022-09-12T00:08:36;5.53;;;2.53;;
15637;SDS011;26604;53.596;10.042;2022-09-12T00:11:03;4.25;;;2.40;;
15637;SDS011;26604;53.596;10.042;2022-09-12T00:13:32;4.05;;;2.60;;
15637;SDS011;26604;53.596;10.042;2022-09-12T00:15:59;4.70;;;2.30;;
15637;SDS011;26604;53.596;10.042;2022-09-12T00:18:26;5.65;;;2.90;;
15637;SDS011;26604;53.596;10.042;2022-09-12T00:20:53;5.05;;;2.58;;
15637;SDS011;26604;53.596;10.042;2022-09-12T00:23:20;5.00;;;2.55;;
15637;SDS011;26604;53.596;10.042;2022-09-12T00:25:48;4.45;;;2.67;;
15637;SDS011;26604;53.596;10.042;2022-09-12T00:28:15;3.47;;;2.72;;
15637;SDS011;26604;53.596;10.042;2022-09-12T00:30:43;4.65;;;2.50;;
15637;SDS011;26604;53.596;10.042;2022-09-12T00:33:11;4.00;;;2.45;;
15637;SDS011;26604;53.596;10.042;2022-09-12T00:35:40;2.95;;;2.33;;
15637;SDS011;26604;53.596;10.042;2022-09-12T00:38:08;3.70;;;2.47;;
15637;SDS011;26604;53.596;10.042;2022-09-12T00:40:35;3.88;;;2.60;;
15637;SDS011;26604;53.596;10.042;2022-09-12T00:43:03;6.05;;;2.90;;
15637;SDS011;26604;53.596;10.042;2022-09-12T00:45:30;3.53;;;2.53;;
15637;SDS011;26604;53.596;10.042;2022-09-12T00:47:58;4.50;;;2.58;;
15637;SDS011;26604;53.596;10.042;2022-09-12T00:50:28;2.65;;;2.15;;
15637;SDS011;26604;53.596;10.042;2022-09-12T00:52:58;2.92;;;2.28;;
15637;SDS011;26604;53.596;10.042;2022-09-12T00:55:30;3.33;;;2.45;;
15637;SDS011;26604;53.596;10.042;2022-09-12T00:58:01;4.13;;;2.40;;
15637;SDS011;26604;53.596;10.042;2022-09-12T01:00:34;3.55;;;2.45;;
15637;SDS011;26604;53.596;10.042;2022-09-12T01:03:02;4.47;;;2.25;;
15637;SDS011;26604;53.596;10.042;2022-09-12T01:05:32;3.30;;;2.60;;
15637;SDS011;26604;53.596;10.042;2022-09-12T01:08:02;4.35;;;2.83;;
15637;SDS011;26604;53.596;10.042;2022-09-12T01:10:30;4.68;;;2.50;;
15637;SDS011;26604;53.596;10.042;2022-09-12T01:12:59;5.32;;;2.55;;
15637;SDS011;26604;53.596;10.042;2022-09-12T01:15:29;3.28;;;2.65;;
15637;SDS011;26604;53.596;10.042;2022-09-12T01:18:01;3.35;;;2.50;;
15637;SDS011;26604;53.596;10.042;2022-09-12T01:20:44;3.25;;;2.33;;
15637;SDS011;26604;53.596;10.042;2022-09-12T01:23:44;2.85;;;2.38;;
15637;SDS011;26604;53.596;10.042;2022-09-12T01:29:44;4.13;;;2.55;;
15637;SDS011;26604;53.596;10.042;2022-09-12T01:32:36;4.10;;;2.83;;
15637;SDS011;26604;53.596;10.042;2022-09-12T01:35:14;3.05;;;2.17;;
15637;SDS011;26604;53.596;10.042;2022-09-12T01:37:49;2.42;;;1.90;;
15637;SDS011;26604;53.596;10.042;2022-09-12T01:40:27;3.45;;;2.45;;
15637;SDS011;26604;53.596;10.042;2022-09-12T01:43:02;2.88;;;2.30;;
15637;SDS011;26604;53.596;10.042;2022-09-12T01:45:34;3.63;;;2.40;;
15637;SDS011;26604;53.596;10.042;2022-09-12T01:48:10;6.15;;;2.40;;
15637;SDS011;26604;53.596;10.042;2022-09-12T01:50:42;4.43;;;2.47;;
15637;SDS011;26604;53.596;10.042;2022-09-12T01:53:12;3.83;;;2.55;;
15637;SDS011;26604;53.596;10.042;2022-09-12T01:55:44;3.25;;;2.30;;
15637;SDS011;26604;53.596;10.042;2022-09-12T01:58:14;4.78;;;2.38;;
15637;SDS011;26604;53.596;10.042;2022-09-12T02:00:46;4.05;;;2.58;;
15637;SDS011;26604;53.596;10.042;2022-09-12T02:03:19;5.53;;;2.17;;
15637;SDS011;26604;53.596;10.042;2022-09-12T02:05:51;3.60;;;2.60;;
15637;SDS011;26604;53.596;10.042;2022-09-12T02:08:21;3.40;;;2.28;;
15637;SDS011;26604;53.596;10.042;2022-09-12T02:10:52;4.97;;;2.10;;
15637;SDS011;26604;53.596;10.042;2022-09-12T02:13:22;3.35;;;2.20;;
15637;SDS011;26604;53.596;10.042;2022-09-12T02:15:56;3.53;;;2.10;;
15637;SDS011;26604;53.596;10.042;2022-09-12T02:18:29;3.35;;;2.05;;
15637;SDS011;26604;53.596;10.042;2022-09-12T02:20:59;3.47;;;2.20;;
15637;SDS011;26604;53.596;10.042;2022-09-12T02:23:31;3.03;;;2.00;;
15637;SDS011;26604;53.596;10.042;2022-09-12T02:26:00;5.07;;;2.10;;
15637;SDS011;26604;53.596;10.042;2022-09-12T02:28:31;3.88;;;2.47;;
15637;SDS011;26604;53.596;10.042;2022-09-12T02:31:03;3.20;;;2.42;;
15637;SDS011;26604;53.596;10.042;2022-09-12T02:33:42;3.33;;;2.28;;
15637;SDS011;26604;53.596;10.042;2022-09-12T02:36:15;3.10;;;2.30;;
15637;SDS011;26604;53.596;10.042;2022-09-12T02:38:51;2.92;;;1.98;;
15637;SDS011;26604;53.596;10.042;2022-09-12T02:41:20;3.30;;;1.98;;
15637;SDS011;26604;53.596;10.042;2022-09-12T02:43:47;3.40;;;2.40;;
15637;SDS011;26604;53.596;10.042;2022-09-12T02:46:17;2.63;;;2.05;;
15637;SDS011;26604;53.596;10.042;2022-09-12T02:48:47;3.13;;;2.10;;
15637;SDS011;26604;53.596;10.042;2022-09-12T02:51:14;2.40;;;2.00;;
15637;SDS011;26604;53.596;10.042;2022-09-12T02:53:41;2.63;;;2.10;;
15637;SDS011;26604;53.596;10.042;2022-09-12T02:56:10;3.85;;;1.90;;
15637;SDS011;26604;53.596;10.042;2022-09-12T02:58:43;3.53;;;2.17;;
15637;SDS011;26604;53.596;10.042;2022-09-12T03:01:11;3.20;;;2.00;;
15637;SDS011;26604;53.596;10.042;2022-09-12T03:03:55;3.20;;;2.03;;
15637;SDS011;26604;53.596;10.042;2022-09-12T03:06:37;3.25;;;2.17;;
15637;SDS011;26604;53.596;10.042;2022-09-12T03:09:14;2.65;;;1.98;;
15637;SDS011;26604;53.596;10.042;2022-09-12T03:11:53;2.88;;;2.13;;
15637;SDS011;26604;53.596;10.042;2022-09-12T03:14:40;2.85;;;2.10;;
15637;SDS011;26604;53.596;10.042;2022-09-12T03:17:21;3.25;;;1.95;;
15637;SDS011;26604;53.596;10.042;2022-09-12T03:19:57;2.47;;;1.83;;
15637;SDS011;26604;53.596;10.042;2022-09-12T03:22:29;2.90;;;1.98;;
15637;SDS011;26604;53.596;10.042;2022-09-12T03:25:07;3.25;;;2.03;;
15637;SDS011;26604;53.596;10.042;2022-09-12T03:27:42;6.38;;;2.10;;
15637;SDS011;26604;53.596;10.042;2022-09-12T03:30:15;2.30;;;1.65;;
15637;SDS011;26604;53.596;10.042;2022-09-12T03:32:43;2.33;;;2.00;;
15637;SDS011;26604;53.596;10.042;2022-09-12T03:35:13;2.45;;;1.90;;
15637;SDS011;26604;53.596;10.042;2022-09-12T03:37:41;3.17;;;2.05;;
15637;SDS011;26604;53.596;10.042;2022-09-12T03:40:10;2.67;;;2.08;;
15637;SDS011;26604;53.596;10.042;2022-09-12T03:42:37;2.45;;;1.92;;
15637;SDS011;26604;53.596;10.042;2022-09-12T03:45:05;2.10;;;1.70;;
15637;SDS011;26604;53.596;10.042;2022-09-12T03:47:32;2.65;;;1.95;;
15637;SDS011;26604;53.596;10.042;2022-09-12T03:50:00;2.75;;;1.98;;
15637;SDS011;26604;53.596;10.042;2022-09-12T03:52:28;2.22;;;1.73;;
15637;SDS011;26604;53.596;10.042;2022-09-12T03:54:55;3.70;;;2.20;;
15637;SDS011;26604;53.596;10.042;2022-09-12T03:57:22;3.72;;;2.30;;
15637;SDS011;26604;53.596;10.042;2022-09-12T03:59:49;2.30;;;1.60;;
15637;SDS011;26604;53.596;10.042;2022-09-12T04:02:15;2.22;;;2.00;;
15637;SDS011;26604;53.596;10.042;2022-09-12T04:04:42;2.72;;;2.20;;
15637;SDS011;26604;53.596;10.042;2022-09-12T04:07:10;3.05;;;1.90;;
15637;SDS011;26604;53.596;10.042;2022-09-12T04:09:38;3.53;;;2.17;;
15637;SDS011;26604;53.596;10.042;2022-09-12T04:12:05;3.63;;;2.10;;
15637;SDS011;26604;53.596;10.042;2022-09-12T04:14:32;2.85;;;1.73;;
15637;SDS011;26604;53.596;10.042;2022-09-12T04:16:59;2.53;;;1.95;;
15637;SDS011;26604;53.596;10.042;2022-09-12T04:19:26;2.58;;;1.98;;
15637;SDS011;26604;53.596;10.042;2022-09-12T04:21:53;3.88;;;1.90;;
15637;SDS011;26604;53.596;10.042;2022-09-12T04:24:20;2.65;;;2.00;;
15637;SDS011;26604;53.596;10.042;2022-09-12T04:26:49;2.60;;;1.55;;
15637;SDS011;26604;53.596;10.042;2022-09-12T04:29:15;2.72;;;1.98;;
15637;SDS011;26604;53.596;10.042;2022-09-12T04:31:42;2.72;;;1.98;;
15637;SDS011;26604;53.596;10.042;2022-09-12T04:34:09;2.40;;;1.92;;
15637;SDS011;26604;53.596;10.042;2022-09-12T04:36:36;3.13;;;1.63;;
15637;SDS011;26604;53.596;10.042;2022-09-12T04:39:03;3.92;;;1.90;;
15637;SDS011;26604;53.596;10.042;2022-09-12T04:41:32;3.15;;;1.85;;
15637;SDS011;26604;53.596;10.042;2022-09-12T04:44:02;2.50;;;1.75;;
15637;SDS011;26604;53.596;10.042;2022-09-12T04:46:32;2.25;;;1.85;;
15637;SDS011;26604;53.596;10.042;2022-09-12T04:49:00;3.90;;;1.90;;
15637;SDS011;26604;53.596;10.042;2022-09-12T04:51:28;2.72;;;2.03;;
15637;SDS011;26604;53.596;10.042;2022-09-12T04:53:59;2.40;;;1.95;;
15637;SDS011;26604;53.596;10.042;2022-09-12T04:56:27;2.70;;;1.70;;
15637;SDS011;26604;53.596;10.042;2022-09-12T04:58:55;3.47;;;2.20;;
15637;SDS011;26604;53.596;10.042;2022-09-12T05:01:24;4.30;;;1.80;;
15637;SDS011;26604;53.596;10.042;2022-09-12T05:03:52;2.67;;;2.00;;
15637;SDS011;26604;53.596;10.042;2022-09-12T05:06:20;3.00;;;1.83;;
15637;SDS011;26604;53.596;10.042;2022-09-12T05:08:48;2.47;;;2.10;;
15637;SDS011;26604;53.596;10.042;2022-09-12T05:11:16;3.65;;;2.13;;
15637;SDS011;26604;53.596;10.042;2022-09-12T05:13:44;2.45;;;1.90;;
15637;SDS011;26604;53.596;10.042;2022-09-12T05:16:12;2.85;;;2.00;;
15637;SDS011;26604;53.596;10.042;2022-09-12T05:18:42;3.22;;;2.00;;
15637;SDS011;26604;53.596;10.042;2022-09-12T05:21:10;3.63;;;2.15;;
15637;SDS011;26604;53.596;10.042;2022-09-12T05:23:39;2.83;;;1.90;;
15637;SDS011;26604;53.596;10.042;2022-09-12T05:26:06;2.10;;;1.70;;
15637;SDS011;26604;53.596;10.042;2022-09-12T05:28:34;4.72;;;2.17;;
15637;SDS011;26604;53.596;10.042;2022-09-12T05:31:03;2.70;;;1.92;;
15637;SDS011;26604;53.596;10.042;2022-09-12T05:33:32;3.03;;;1.80;;
15637;SDS011;26604;53.596;10.042;2022-09-12T05:36:02;2.90;;;1.75;;
15637;SDS011;26604;53.596;10.042;2022-09-12T05:38:30;3.03;;;1.98;;
15637;SDS011;26604;53.596;10.042;2022-09-12T05:41:01;2.35;;;1.88;;
15637;SDS011;26604;53.596;10.042;2022-09-12T05:43:30;1.92;;;1.60;;
15637;SDS011;26604;53.596;10.042;2022-09-12T05:45:59;3.28;;;2.00;;
15637;SDS011;26604;53.596;10.042;2022-09-12T05:48:27;3.95;;;1.88;;
15637;SDS011;26604;53.596;10.042;2022-09-12T05:50:57;3.05;;;2.17;;
15637;SDS011;26604;53.596;10.042;2022-09-12T05:53:27;2.10;;;1.65;;
15637;SDS011;26604;53.596;10.042;2022-09-12T05:56:02;2.40;;;1.77;;
15637;SDS011;26604;53.596;10.042;2022-09-12T05:58:30;2.42;;;1.85;;
15637;SDS011;26604;53.596;10.042;2022-09-12T06:01:00;2.20;;;1.73;;
15637;SDS011;26604;53.596;10.042;2022-09-12T06:03:28;3.50;;;1.67;;
15637;SDS011;26604;53.596;10.042;2022-09-12T06:05:55;3.97;;;1.63;;
15637;SDS011;26604;53.596;10.042;2022-09-12T06:08:22;3.85;;;1.77;;
15637;SDS011;26604;53.596;10.042;2022-09-12T06:10:50;2.13;;;1.40;;
15637;SDS011;26604;53.596;10.042;2022-09-12T06:13:23;2.72;;;1.60;;
15637;SDS011;26604;53.596;10.042;2022-09-12T06:15:50;2.28;;;2.00;;
15637;SDS011;26604;53.596;10.042;2022-09-12T06:18:18;4.43;;;1.80;;
15637;SDS011;26604;53.596;10.042;2022-09-12T06:20:45;2.08;;;1.63;;
15637;SDS011;26604;53.596;10.042;2022-09-12T06:23:12;3.53;;;1.90;;
15637;SDS011;26604;53.596;10.042;2022-09-12T06:25:44;3.10;;;1.85;;
15637;SDS011;26604;53.596;10.042;2022-09-12T06:28:13;2.97;;;1.75;;
15637;SDS011;26604;53.596;10.042;2022-09-12T06:30:40;2.72;;;1.70;;
15637;SDS011;26604;53.596;10.042;2022-09-12T06:33:07;2.80;;;2.10;;
15637;SDS011;26604;53.596;10.042;2022-09-12T06:35:34;2.65;;;1.63;;
15637;SDS011;26604;53.596;10.042;2022-09-12T06:38:02;3.08;;;2.30;;
15637;SDS011;26604;53.596;10.042;2022-09-12T06:40:29;4.32;;;2.08;;
15637;SDS011;26604;53.596;10.042;2022-09-12T06:42:56;3.22;;;2.40;;
15637;SDS011;26604;53.596;10.042;2022-09-12T06:45:24;3.97;;;2.40;;
15637;SDS011;26604;53.596;10.042;2022-09-12T06:47:51;7.05;;;2.63;;
15637;SDS011;26604;53.596;10.042;2022-09-12T06:50:18;6.65;;;2.65;;
15637;SDS011;26604;53.596;10.042;2022-09-12T06:52:47;4.05;;;2.63;;
15637;SDS011;26604;53.596;10.042;2022-09-12T06:55:15;6.07;;;2.75;;
15637;SDS011;26604;53.596;10.042;2022-09-12T06:57:42;4.63;;;2.55;;
15637;SDS011;26604;53.596;10.042;2022-09-12T07:00:09;3.72;;;2.03;;
15637;SDS011;26604;53.596;10.042;2022-09-12T07:02:38;11.20;;;2.40;;
15637;SDS011;26604;53.596;10.042;2022-09-12T07:05:05;6.35;;;2.30;;
15637;SDS011;26604;53.596;10.042;2022-09-12T07:07:33;4.50;;;2.60;;
15637;SDS011;26604;53.596;10.042;2022-09-12T07:10:00;6.88;;;2.15;;
15637;SDS011;26604;53.596;10.042;2022-09-12T07:12:27;6.38;;;2.42;;
15637;SDS011;26604;53.596;10.042;2022-09-12T07:14:54;4.15;;;1.98;;
15637;SDS011;26604;53.596;10.042;2022-09-12T07:17:21;4.57;;;2.30;;
15637;SDS011;26604;53.596;10.042;2022-09-12T07:19:49;4.57;;;2.60;;
15637;SDS011;26604;53.596;10.042;2022-09-12T07:22:16;3.67;;;2.72;;
15637;SDS011;26604;53.596;10.042;2022-09-12T07:24:43;4.20;;;2.45;;
15637;SDS011;26604;53.596;10.042;2022-09-12T07:27:10;4.07;;;2.35;;
15637;SDS011;26604;53.596;10.042;2022-09-12T07:29:37;4.50;;;2.58;;
15637;SDS011;26604;53.596;10.042;2022-09-12T07:32:04;4.13;;;2.35;;
15637;SDS011;26604;53.596;10.042;2022-09-12T07:34:31;2.58;;;2.08;;
15637;SDS011;26604;53.596;10.042;2022-09-12T07:37:00;3.15;;;2.13;;
15637;SDS011;26604;53.596;10.042;2022-09-12T07:39:27;5.18;;;2.60;;
15637;SDS011;26604;53.596;10.042;2022-09-12T07:41:53;3.00;;;2.35;;
15637;SDS011;26604;53.596;10.042;2022-09-12T07:44:21;4.93;;;1.98;;
15637;SDS011;26604;53.596;10.042;2022-09-12T07:46:48;3.08;;;1.67;;
15637;SDS011;26604;53.596;10.042;2022-09-12T07:49:16;9.82;;;2.15;;
15637;SDS011;26604;53.596;10.042;2022-09-12T07:51:43;3.83;;;2.17;;
15637;SDS011;26604;53.596;10.042;2022-09-12T07:54:11;3.83;;;1.98;;
15637;SDS011;26604;53.596;10.042;2022-09-12T07:56:38;3.17;;;2.28;;
15637;SDS011;26604;53.596;10.042;2022-09-12T07:59:05;3.90;;;1.80;;
15637;SDS011;26604;53.596;10.042;2022-09-12T08:01:33;3.65;;;1.90;;
15637;SDS011;26604;53.596;10.042;2022-09-12T08:04:00;3.90;;;2.20;;
15637;SDS011;26604;53.596;10.042;2022-09-12T08:06:28;4.25;;;2.58;;
15637;SDS011;26604;53.596;10.042;2022-09-12T08:08:58;4.40;;;1.85;;
15637;SDS011;26604;53.596;10.042;2022-09-12T08:11:28;4.25;;;2.28;;
15637;SDS011;26604;53.596;10.042;2022-09-12T08:13:55;3.90;;;2.17;;
15637;SDS011;26604;53.596;10.042;2022-09-12T08:16:23;4.88;;;2.15;;
15637;SDS011;26604;53.596;10.042;2022-09-12T08:18:51;6.15;;;2.30;;
15637;SDS011;26604;53.596;10.042;2022-09-12T08:21:19;5.85;;;2.42;;
15637;SDS011;26604;53.596;10.042;2022-09-12T08:23:50;5.20;;;2.85;;
15637;SDS011;26604;53.596;10.042;2022-09-12T08:26:18;3.55;;;2.08;;
15637;SDS011;26604;53.596;10.042;2022-09-12T08:28:46;4.45;;;2.30;;
15637;SDS011;26604;53.596;10.042;2022-09-12T08:31:14;6.38;;;2.40;;
15637;SDS011;26604;53.596;10.042;2022-09-12T08:33:42;4.55;;;2.50;;
15637;SDS011;26604;53.596;10.042;2022-09-12T08:36:09;4.15;;;2.55;;
15637;SDS011;26604;53.596;10.042;2022-09-12T08:38:38;6.03;;;2.72;;
15637;SDS011;26604;53.596;10.042;2022-09-12T08:41:08;5.65;;;2.15;;
15637;SDS011;26604;53.596;10.042;2022-09-12T08:46:31;5.78;;;2.75;;
15637;SDS011;26604;53.596;10.042;2022-09-12T08:49:03;3.80;;;2.17;;
15637;SDS011;26604;53.596;10.042;2022-09-12T08:51:35;5.07;;;2.28;;
15637;SDS011;26604;53.596;10.042;2022-09-12T08:54:03;5.38;;;2.40;;
15637;SDS011;26604;53.596;10.042;2022-09-12T08:56:39;5.57;;;2.25;;
15637;SDS011;26604;53.596;10.042;2022-09-12T08:59:08;3.30;;;1.95;;
15637;SDS011;26604;53.596;10.042;2022-09-12T09:01:36;4.10;;;2.00;;
15637;SDS011;26604;53.596;10.042;2022-09-12T09:04:19;9.25;;;1.98;;
15637;SDS011;26604;53.596;10.042;2022-09-12T09:07:03;4.60;;;1.92;;
15637;SDS011;26604;53.596;10.042;2022-09-12T09:09:48;6.45;;;1.88;;
15637;SDS011;26604;53.596;10.042;2022-09-12T09:12:25;3.40;;;1.83;;
15637;SDS011;26604;53.596;10.042;2022-09-12T09:15:05;3.40;;;1.65;;
15637;SDS011;26604;53.596;10.042;2022-09-12T09:17:48;1.92;;;1.63;;
15637;SDS011;26604;53.596;10.042;2022-09-12T09:20:21;2.17;;;1.60;;
15637;SDS011;26604;53.596;10.042;2022-09-12T09:22:54;2.10;;;1.55;;
15637;SDS011;26604;53.596;10.042;2022-09-12T09:25:29;2.17;;;1.50;;
15637;SDS011;26604;53.596;10.042;2022-09-12T09:28:10;2.65;;;1.38;;
15637;SDS011;26604;53.596;10.042;2022-09-12T09:30:42;2.35;;;1.48;;
15637;SDS011;26604;53.596;10.042;2022-09-12T09:33:13;2.20;;;1.40;;
15637;SDS011;26604;53.596;10.042;2022-09-12T09:35:45;2.40;;;1.50;;
15637;SDS011;26604;53.596;10.042;2022-09-12T09:38:17;1.65;;;1.30;;
15637;SDS011;26604;53.596;10.042;2022-09-12T09:40:51;1.88;;;1.40;;
15637;SDS011;26604;53.596;10.042;2022-09-12T09:43:37;2.97;;;1.33;;
15637;SDS011;26604;53.596;10.042;2022-09-12T09:46:06;2.35;;;1.33;;
15637;SDS011;26604;53.596;10.042;2022-09-12T09:48:33;3.50;;;1.30;;
15637;SDS011;26604;53.596;10.042;2022-09-12T09:51:02;2.65;;;1.10;;
15637;SDS011;26604;53.596;10.042;2022-09-12T09:53:33;1.63;;;1.13;;
15637;SDS011;26604;53.596;10.042;2022-09-12T09:56:06;1.88;;;1.10;;
15637;SDS011;26604;53.596;10.042;2022-09-12T09:58:37;1.85;;;1.42;;
15637;SDS011;26604;53.596;10.042;2022-09-12T10:01:10;1.55;;;0.95;;
15637;SDS011;26604;53.596;10.042;2022-09-12T10:03:39;2.00;;;1.00;;
15637;SDS011;26604;53.596;10.042;2022-09-12T10:06:21;1.23;;;1.00;;
15637;SDS011;26604;53.596;10.042;2022-09-12T10:09:03;1.35;;;0.88;;
15637;SDS011;26604;53.596;10.042;2022-09-12T10:11:33;1.52;;;1.10;;
15637;SDS011;26604;53.596;10.042;2022-09-12T10:14:01;4.20;;;1.05;;
15637;SDS011;26604;53.596;10.042;2022-09-12T10:16:30;2.30;;;1.10;;
15637;SDS011;26604;53.596;10.042;2022-09-12T10:18:59;1.40;;;1.05;;
15637;SDS011;26604;53.596;10.042;2022-09-12T10:21:28;1.45;;;1.10;;
15637;SDS011;26604;53.596;10.042;2022-09-12T10:23:58;2.58;;;1.38;;
15637;SDS011;26604;53.596;10.042;2022-09-12T10:26:32;1.88;;;1.00;;
15637;SDS011;26604;53.596;10.042;2022-09-12T10:29:04;1.20;;;0.85;;
15637;SDS011;26604;53.596;10.042;2022-09-12T10:31:43;2.30;;;1.13;;
15637;SDS011;26604;53.596;10.042;2022-09-12T10:34:25;1.38;;;0.70;;
15637;SDS011;26604;53.596;10.042;2022-09-12T10:37:01;2.10;;;1.13;;
15637;SDS011;26604;53.596;10.042;2022-09-12T10:39:29;1.42;;;1.02;;
15637;SDS011;26604;53.596;10.042;2022-09-12T10:41:58;1.30;;;0.98;;
15637;SDS011;26604;53.596;10.042;2022-09-12T10:44:26;2.97;;;1.30;;
15637;SDS011;26604;53.596;10.042;2022-09-12T10:46:56;1.33;;;0.93;;
15637;SDS011;26604;53.596;10.042;2022-09-12T10:49:25;1.85;;;1.25;;
15637;SDS011;26604;53.596;10.042;2022-09-12T10:51:54;2.38;;;1.10;;
15637;SDS011;26604;53.596;10.042;2022-09-12T10:54:24;1.13;;;0.90;;
15637;SDS011;26604;53.596;10.042;2022-09-12T10:57:00;1.23;;;1.00;;
15637;SDS011;26604;53.596;10.042;2022-09-12T10:59:57;1.73;;;1.10;;
15637;SDS011;26604;53.596;10.042;2022-09-12T11:02:41;1.90;;;1.45;;
15637;SDS011;26604;53.596;10.042;2022-09-12T11:05:17;1.92;;;1.05;;
15637;SDS011;26604;53.596;10.042;2022-09-12T11:08:02;1.85;;;0.90;;
15637;SDS011;26604;53.596;10.042;2022-09-12T11:10:44;1.50;;;1.13;;
15637;SDS011;26604;53.596;10.042;2022-09-12T11:13:21;2.05;;;1.25;;
15637;SDS011;26604;53.596;10.042;2022-09-12T11:16:05;2.80;;;1.10;;
15637;SDS011;26604;53.596;10.042;2022-09-12T11:18:46;3.55;;;1.05;;
15637;SDS011;26604;53.596;10.042;2022-09-12T11:21:30;1.45;;;1.10;;
15637;SDS011;26604;53.596;10.042;2022-09-12T11:27:00;2.05;;;1.15;;
15637;SDS011;26604;53.596;10.042;2022-09-12T11:29:40;1.08;;;0.88;;
15637;SDS011;26604;53.596;10.042;2022-09-12T11:32:26;2.20;;;0.90;;
15637;SDS011;26604;53.596;10.042;2022-09-12T11:35:16;3.05;;;1.02;;
15637;SDS011;26604;53.596;10.042;2022-09-12T11:37:52;2.25;;;1.10;;
15637;SDS011;26604;53.596;10.042;2022-09-12T11:40:32;1.30;;;0.98;;
15637;SDS011;26604;53.596;10.042;2022-09-12T11:43:06;1.02;;;0.80;;
15637;SDS011;26604;53.596;10.042;2022-09-12T11:45:48;3.03;;;1.10;;
15637;SDS011;26604;53.596;10.042;2022-09-12T11:48:29;1.83;;;1.13;;
15637;SDS011;26604;53.596;10.042;2022-09-12T11:51:22;2.30;;;1.15;;
15637;SDS011;26604;53.596;10.042;2022-09-12T11:53:57;2.30;;;1.10;;
15637;SDS011;26604;53.596;10.042;2022-09-12T11:56:30;1.35;;;0.95;;
15637;SDS011;26604;53.596;10.042;2022-09-12T11:58:58;1.90;;;1.10;;
15637;SDS011;26604;53.596;10.042;2022-09-12T12:01:30;1.80;;;1.10;;
15637;SDS011;26604;53.596;10.042;2022-09-12T12:04:00;1.60;;;1.50;;
15637;SDS011;26604;53.596;10.042;2022-09-12T12:06:35;2.65;;;1.17;;
15637;SDS011;26604;53.596;10.042;2022-09-12T12:09:12;1.98;;;1.30;;
15637;SDS011;26604;53.596;10.042;2022-09-12T12:11:40;3.83;;;1.10;;
15637;SDS011;26604;53.596;10.042;2022-09-12T12:14:12;1.63;;;1.10;;
15637;SDS011;26604;53.596;10.042;2022-09-12T12:16:42;1.77;;;1.20;;
15637;SDS011;26604;53.596;10.042;2022-09-12T12:19:18;5.47;;;1.17;;
15637;SDS011;26604;53.596;10.042;2022-09-12T12:22:07;1.83;;;1.17;;
15637;SDS011;26604;53.596;10.042;2022-09-12T12:27:53;1.73;;;1.05;;
15637;SDS011;26604;53.596;10.042;2022-09-12T12:36:38;2.83;;;0.98;;
15637;SDS011;26604;53.596;10.042;2022-09-12T12:48:42;2.42;;;1.10;;
15637;SDS011;26604;53.596;10.042;2022-09-12T12:54:02;1.10;;;1.00;;
15637;SDS011;26604;53.596;10.042;2022-09-12T12:56:37;1.05;;;0.90;;
15637;SDS011;26604;53.596;10.042;2022-09-12T12:59:11;1.63;;;1.20;;
15637;SDS011;26604;53.596;10.042;2022-09-12T13:01:46;1.25;;;1.15;;
15637;SDS011;26604;53.596;10.042;2022-09-12T13:04:17;1.38;;;1.00;;
15637;SDS011;26604;53.596;10.042;2022-09-12T13:06:54;1.38;;;1.05;;
15637;SDS011;26604;53.596;10.042;2022-09-12T13:09:24;1.10;;;0.90;;
15637;SDS011;26604;53.596;10.042;2022-09-12T13:11:56;3.42;;;1.10;;
15637;SDS011;26604;53.596;10.042;2022-09-12T13:14:33;2.40;;;1.13;;
15637;SDS011;26604;53.596;10.042;2022-09-12T13:17:03;1.92;;;1.10;;
15637;SDS011;26604;53.596;10.042;2022-09-12T13:19:35;2.50;;;1.20;;
15637;SDS011;26604;53.596;10.042;2022-09-12T13:22:03;1.20;;;1.00;;
15637;SDS011;26604;53.596;10.042;2022-09-12T13:24:31;1.10;;;1.00;;
15637;SDS011;26604;53.596;10.042;2022-09-12T13:26:59;1.60;;;0.98;;
15637;SDS011;26604;53.596;10.042;2022-09-12T13:29:26;1.23;;;1.10;;
15637;SDS011;26604;53.596;10.042;2022-09-12T13:31:54;1.13;;;0.82;;
15637;SDS011;26604;53.596;10.042;2022-09-12T13:34:23;2.35;;;1.20;;
15637;SDS011;26604;53.596;10.042;2022-09-12T13:39:57;1.58;;;1.25;;
15637;SDS011;26604;53.596;10.042;2022-09-12T13:42:39;1.83;;;1.20;;
15637;SDS011;26604;53.596;10.042;2022-09-12T13:45:11;1.88;;;1.10;;
15637;SDS011;26604;53.596;10.042;2022-09-12T13:47:41;2.20;;;1.08;;
15637;SDS011;26604;53.596;10.042;2022-09-12T13:50:13;1.73;;;1.27;;
15637;SDS011;26604;53.596;10.042;2022-09-12T13:52:46;1.10;;;1.00;;
15637;SDS011;26604;53.596;10.042;2022-09-12T13:55:27;1.55;;;1.27;;
15637;SDS011;26604;53.596;10.042;2022-09-12T13:57:57;1.70;;;1.25;;
15637;SDS011;26604;53.596;10.042;2022-09-12T14:00:26;2.17;;;1.05;;
15637;SDS011;26604;53.596;10.042;2022-09-12T14:02:55;2.60;;;1.35;;
15637;SDS011;26604;53.596;10.042;2022-09-12T14:05:36;1.55;;;1.20;;
15637;SDS011;26604;53.596;10.042;2022-09-12T14:08:07;2.63;;;1.10;;
15637;SDS011;26604;53.596;10.042;2022-09-12T14:10:38;1.30;;;1.20;;
15637;SDS011;26604;53.596;10.042;2022-09-12T14:13:09;1.40;;;1.10;;
15637;SDS011;26604;53.596;10.042;2022-09-12T14:15:38;1.88;;;1.30;;
15637;SDS011;26604;53.596;10.042;2022-09-12T14:18:19;1.95;;;1.30;;
15637;SDS011;26604;53.596;10.042;2022-09-12T14:20:48;1.98;;;1.23;;
15637;SDS011;26604;53.596;10.042;2022-09-12T14:23:25;2.05;;;1.25;;
15637;SDS011;26604;53.596;10.042;2022-09-12T14:25:54;1.30;;;1.20;;
15637;SDS011;26604;53.596;10.042;2022-09-12T14:28:23;1.42;;;0.95;;
15637;SDS011;26604;53.596;10.042;2022-09-12T14:31:00;1.30;;;1.20;;
15637;SDS011;26604;53.596;10.042;2022-09-12T14:33:31;1.17;;;1.08;;
15637;SDS011;26604;53.596;10.042;2022-09-12T14:36:14;1.58;;;1.25;;
15637;SDS011;26604;53.596;10.042;2022-09-12T14:38:47;1.30;;;1.08;;
15637;SDS011;26604;53.596;10.042;2022-09-12T14:41:20;2.70;;;1.10;;
15637;SDS011;26604;53.596;10.042;2022-09-12T14:43:50;2.63;;;1.48;;
15637;SDS011;26604;53.596;10.042;2022-09-12T14:46:21;2.13;;;1.52;;
15637;SDS011;26604;53.596;10.042;2022-09-12T14:48:52;1.38;;;1.27;;
15637;SDS011;26604;53.596;10.042;2022-09-12T14:51:24;1.77;;;1.40;;
15637;SDS011;26604;53.596;10.042;2022-09-12T14:53:53;1.92;;;1.50;;
15637;SDS011;26604;53.596;10.042;2022-09-12T14:56:20;1.73;;;1.20;;
15637;SDS011;26604;53.596;10.042;2022-09-12T15:04:44;2.15;;;1.52;;
15637;SDS011;26604;53.596;10.042;2022-09-12T15:07:13;2.45;;;1.48;;
15637;SDS011;26604;53.596;10.042;2022-09-12T15:09:41;1.52;;;1.35;;
15637;SDS011;26604;53.596;10.042;2022-09-12T15:12:09;2.03;;;1.52;;
15637;SDS011;26604;53.596;10.042;2022-09-12T15:14:36;4.47;;;1.60;;
15637;SDS011;26604;53.596;10.042;2022-09-12T15:17:02;4.97;;;1.60;;
15637;SDS011;26604;53.596;10.042;2022-09-12T15:19:29;3.97;;;1.70;;
15637;SDS011;26604;53.596;10.042;2022-09-12T15:21:56;5.32;;;1.95;;
15637;SDS011;26604;53.596;10.042;2022-09-12T15:24:23;6.18;;;1.80;;
15637;SDS011;26604;53.596;10.042;2022-09-12T15:26:51;5.07;;;1.80;;
15637;SDS011;26604;53.596;10.042;2022-09-12T15:29:18;7.40;;;2.30;;
15637;SDS011;26604;53.596;10.042;2022-09-12T15:31:45;2.38;;;1.60;;
15637;SDS011;26604;53.596;10.042;2022-09-12T15:34:15;2.35;;;1.50;;
15637;SDS011;26604;53.596;10.042;2022-09-12T15:36:44;2.40;;;1.88;;